^^
Saratoga-Weather Station Historical Data
Daily Summary for April 11, 2021 Units:  English    Metric   Both
Daily Weekly Monthly Yearly Custom
  High: Low: Average:
Temperature: 51.1 °F 38.8 °F 45.5 °F
Dew Point: 49.1 °F 36.1 °F 43.3 °F
Humidity: 97% 88% 93%
Wind Speed: 8.9mph 0mph 2.1mph
Wind Gust: 13mph - -
Wind- - SW
Pressure: 30.1 in 29.7 in -
Precipitation: 0.61 in    
Historical Graphs
 
 
Tabular Data for April 11, 2021
Time Temperature Dew Point Pressure Wind Wind Speed Wind Gust Humidity Rainfall Rate (Hourly) solar
00:02 48 °F 46.9 °F 29.8 in Calm   2 mph 96% 0.07 in 0 W/m2
00:07 48.2 °F 47.1 °F 29.8 in Calm     96% 0.07 in 0 W/m2
00:12 48.2 °F 47.1 °F 29.8 in Calm     96% 0.07 in 0 W/m2
00:17 48.2 °F 47.1 °F 29.8 in Calm   1 mph 96% 0.08 in 0 W/m2
00:22 48.4 °F 47.3 °F 29.8 in Calm     96% 0.08 in 0 W/m2
00:27 48.4 °F 47.3 °F 29.8 in NNE 0.9 mph 1 mph 96% 0.08 in 0 W/m2
00:32 48.4 °F 47.3 °F 29.8 in North 2 mph 2 mph 96% 0.08 in 0 W/m2
00:37 48.4 °F 47.3 °F 29.8 in Calm   1 mph 96% 0.07 in 0 W/m2
00:42 48.4 °F 47.3 °F 29.8 in Calm   1 mph 96% 0.07 in 0 W/m2
00:47 48.4 °F 47.3 °F 29.8 in Calm     96% 0.06 in 0 W/m2
00:52 48.2 °F 47.1 °F 29.8 in Calm   1 mph 96% 0.06 in 0 W/m2
00:57 48 °F 46.9 °F 29.8 in Calm     96% 0.05 in 0 W/m2
01:02 48 °F 46.9 °F 29.8 in Calm     96% 0.04 in 0 W/m2
01:07 47.8 °F 46.8 °F 29.8 in Calm     96% 0.03 in 0 W/m2
01:12 47.8 °F 46.8 °F 29.8 in Calm     96% 0.03 in 0 W/m2
01:22 47.8 °F 46.8 °F 29.8 in Calm     96% 0.02 in 0 W/m2
01:27 47.8 °F 46.8 °F 29.8 in Calm   1 mph 96% 0.02 in 0 W/m2
01:33 48 °F 46.9 °F 29.8 in NNE 2 mph 3 mph 96% 0.01 in 0 W/m2
01:38 48.2 °F 47.3 °F 29.8 in Calm     97% 0.01 in 0 W/m2
01:43 48.2 °F 47.3 °F 29.8 in Calm   3 mph 97% 0 in 0 W/m2
01:48 48 °F 46.9 °F 29.8 in Calm     96% 0 in 0 W/m2
01:53 48 °F 46.9 °F 29.8 in Calm     96% 0 in 0 W/m2
01:58 48 °F 46.9 °F 29.8 in Calm     96% 0.01 in 0 W/m2
02:03 48 °F 46.9 °F 29.8 in Calm     96% 0.01 in 0 W/m2
02:08 48 °F 46.9 °F 29.8 in Calm     96% 0.01 in 0 W/m2
02:13 48 °F 46.9 °F 29.8 in Calm     96% 0.01 in 0 W/m2
02:18 48 °F 46.9 °F 29.8 in Calm     96% 0.01 in 0 W/m2
02:23 48.2 °F 47.3 °F 29.8 in North 0.9 mph 1 mph 97% 0.01 in 0 W/m2
02:28 48.4 °F 47.5 °F 29.8 in NE 2.9 mph 3 mph 97% 0.01 in 0 W/m2
02:33 48.4 °F 47.5 °F 29.8 in Calm     97% 0.01 in 0 W/m2
02:38 48.6 °F 47.7 °F 29.8 in Calm   2 mph 97% 0.01 in 0 W/m2
02:43 48.6 °F 47.7 °F 29.8 in Calm   2 mph 97% 0.01 in 0 W/m2
02:53 48.6 °F 47.7 °F 29.7 in East 0.9 mph 3 mph 97% 0.02 in 0 W/m2
02:58 48.7 °F 47.7 °F 29.7 in East 0.9 mph 2 mph 96% 0.01 in 0 W/m2
03:03 48.7 °F 47.7 °F 29.7 in NNE 2 mph 2 mph 96% 0.01 in 0 W/m2
03:08 48.7 °F 47.7 °F 29.7 in Calm   1 mph 96% 0.01 in 0 W/m2
03:13 48.7 °F 47.7 °F 29.7 in North 0.9 mph 2 mph 96% 0.02 in 0 W/m2
03:18 48.7 °F 47.7 °F 29.7 in NE 2 mph 3 mph 96% 0.02 in 0 W/m2
03:23 48.9 °F 47.8 °F 29.7 in ENE 2.9 mph 3 mph 96% 0.02 in 0 W/m2
03:28 48.9 °F 47.8 °F 29.7 in Calm   2 mph 96% 0.02 in 0 W/m2
03:33 49.1 °F 48 °F 29.7 in North 0.9 mph 3 mph 96% 0.02 in 0 W/m2
03:38 49.3 °F 48.2 °F 29.7 in NW 4.9 mph 7 mph 96% 0.02 in 0 W/m2
03:43 49.3 °F 48.2 °F 29.7 in North 0.9 mph 1 mph 96% 0.03 in 0 W/m2
03:48 49.5 °F 48 °F 29.7 in NW 2 mph 6 mph 95% 0.03 in 0 W/m2
03:53 49.5 °F 48 °F 29.7 in Calm   2 mph 95% 0.02 in 0 W/m2
03:58 49.6 °F 48.2 °F 29.7 in SW 2.9 mph 7 mph 95% 0.03 in 0 W/m2
04:03 49.6 °F 48.2 °F 29.7 in NW 2.9 mph 3 mph 95% 0.03 in 0 W/m2
04:08 49.8 °F 48.4 °F 29.7 in NE 0.9 mph 2 mph 95% 0.03 in 0 W/m2
04:13 49.8 °F 48.4 °F 29.7 in WNW 2 mph 9 mph 95% 0.02 in 0 W/m2
04:18 50 °F 48.6 °F 29.7 in NNW 0.9 mph 6 mph 95% 0.03 in 0 W/m2
04:23 50.2 °F 48.7 °F 29.7 in Calm   9 mph 95% 0.03 in 0 W/m2
04:28 50.2 °F 48.7 °F 29.7 in NNE 0.9 mph 4 mph 95% 0.03 in 0 W/m2
04:33 50.2 °F 48.7 °F 29.7 in North 0.9 mph 1 mph 95% 0.03 in 0 W/m2
04:38 50.2 °F 48.7 °F 29.7 in NE 0.9 mph 2 mph 95% 0.03 in 0 W/m2
04:43 50.2 °F 48.7 °F 29.7 in NNW 4.9 mph 5 mph 95% 0.02 in 0 W/m2
04:48 50.2 °F 48.7 °F 29.7 in Calm   3 mph 95% 0.02 in 0 W/m2
04:53 50.2 °F 48.6 °F 29.7 in NNE 0.9 mph 2 mph 94% 0.02 in 0 W/m2
04:58 50.2 °F 48.6 °F 29.7 in NNE 2 mph 2 mph 94% 0.02 in 0 W/m2
05:03 50.2 °F 48.6 °F 29.7 in NE 2.9 mph 4 mph 94% 0.02 in 0 W/m2
05:08 50.2 °F 48.6 °F 29.7 in NNE 4 mph 5 mph 94% 0.02 in 0 W/m2
05:13 50.2 °F 48.6 °F 29.7 in North 0.9 mph 3 mph 94% 0.02 in 0 W/m2
05:18 50.2 °F 48.6 °F 29.7 in North 2 mph 5 mph 94% 0.01 in 0 W/m2
05:23 50 °F 48.4 °F 29.7 in NE 0.9 mph 2 mph 94% 0.01 in 0 W/m2
05:28 50 °F 48.4 °F 29.7 in NNW 0.9 mph 5 mph 94% 0.01 in 0 W/m2
05:33 50 °F 48.4 °F 29.7 in Calm   1 mph 94% 0.01 in 0 W/m2
05:38 49.8 °F 48.2 °F 29.7 in Calm   4 mph 94% 0.01 in 0 W/m2
05:43 49.8 °F 48.2 °F 29.7 in ENE 4 mph 5 mph 94% 0 in 0 W/m2
05:48 49.8 °F 48.2 °F 29.7 in NE 2.9 mph 3 mph 94% 0 in 0 W/m2
05:53 49.8 °F 47.8 °F 29.7 in NE 2 mph 5 mph 93% 0 in 0 W/m2
05:58 49.8 °F 47.8 °F 29.7 in Calm   2 mph 93% 0 in 0 W/m2
06:03 49.8 °F 47.8 °F 29.7 in NNW 2 mph 3 mph 93% 0 in 0 W/m2
06:08 49.8 °F 47.8 °F 29.7 in ENE 4 mph 4 mph 93% 0 in 0 W/m2
06:13 49.8 °F 47.8 °F 29.7 in NNE 0.9 mph 2 mph 93% 0 in 0 W/m2
06:18 49.8 °F 47.8 °F 29.7 in North 2 mph 3 mph 93% 0 in 0 W/m2
06:23 49.8 °F 47.8 °F 29.7 in North 2 mph 2 mph 93% 0 in 0 W/m2
06:28 49.8 °F 47.8 °F 29.7 in NNE 0.9 mph 2 mph 93% 0 in 0 W/m2
06:33 49.8 °F 47.8 °F 29.7 in NNW 2 mph 2 mph 93% 0 in 0 W/m2
06:38 49.8 °F 47.8 °F 29.7 in NE 0.9 mph 3 mph 93% 0 in 0 W/m2
06:43 49.8 °F 47.8 °F 29.7 in WNW 2.9 mph 5 mph 93% 0 in 0 W/m2
06:48 49.8 °F 47.8 °F 29.7 in NNW 0.9 mph 4 mph 93% 0 in 0 W/m2
06:53 49.8 °F 47.7 °F 29.7 in NNW 2 mph 5 mph 92% 0 in 0 W/m2
06:58 49.8 °F 47.7 °F 29.7 in NW 0.9 mph 3 mph 92% 0 in 11 W/m2
07:03 49.8 °F 47.7 °F 29.7 in North 0.9 mph 2 mph 92% 0 in 9 W/m2
07:08 49.8 °F 47.7 °F 29.7 in North 2 mph 6 mph 92% 0 in 18 W/m2
07:13 49.8 °F 47.7 °F 29.7 in Calm   2 mph 92% 0 in 18 W/m2
07:18 49.8 °F 47.7 °F 29.7 in ESE 2 mph 6 mph 92% 0 in 23 W/m2
07:23 49.8 °F 47.7 °F 29.7 in ENE 2 mph 2 mph 92% 0 in 16 W/m2
07:28 49.8 °F 47.7 °F 29.7 in NE 2.9 mph 3 mph 92% 0 in 14 W/m2
07:33 49.6 °F 47.5 °F 29.7 in ESE 2 mph 7 mph 92% 0 in 14 W/m2
07:43 49.6 °F 47.5 °F 29.7 in Calm   7 mph 92% 0 in 25 W/m2
07:48 49.6 °F 47.5 °F 29.7 in West 0.9 mph 3 mph 92% 0 in 30 W/m2
07:53 49.6 °F 47.5 °F 29.7 in NNW 2 mph 2 mph 92% 0 in 39 W/m2
07:58 49.6 °F 47.5 °F 29.7 in ESE 2 mph 3 mph 92% 0 in 47 W/m2
08:03 49.6 °F 47.5 °F 29.7 in NE 2 mph 2 mph 92% 0 in 33 W/m2
08:13 49.6 °F 47.5 °F 29.7 in NNW 0.9 mph 3 mph 92% 0.02 in 18 W/m2
08:18 49.6 °F 47.7 °F 29.7 in NW 0.9 mph 6 mph 93% 0.02 in 19 W/m2
08:23 49.5 °F 47.5 °F 29.7 in West 2 mph 8 mph 93% 0.04 in 19 W/m2
08:28 49.5 °F 47.5 °F 29.7 in ENE 0.9 mph 3 mph 93% 0.06 in 14 W/m2
08:33 49.3 °F 47.3 °F 29.7 in Calm   8 mph 93% 0.07 in 25 W/m2
08:38 49.3 °F 47.3 °F 29.7 in North 0.9 mph 4 mph 93% 0.09 in 28 W/m2
08:43 49.3 °F 47.7 °F 29.7 in North 0.9 mph 7 mph 94% 0.09 in 30 W/m2
08:48 49.1 °F 47.5 °F 29.7 in Calm   1 mph 94% 0.1 in 18 W/m2
08:53 49.1 °F 47.5 °F 29.7 in Calm   3 mph 94% 0.1 in 21 W/m2
08:59 49.1 °F 47.5 °F 29.7 in ENE 0.9 mph 2 mph 94% 0.1 in 19 W/m2
09:04 48.9 °F 47.3 °F 29.7 in ENE 2.9 mph 4 mph 94% 0.1 in 23 W/m2
09:09 48.9 °F 47.3 °F 29.7 in NNE 2 mph 2 mph 94% 0.1 in 28 W/m2
09:14 48.9 °F 47.3 °F 29.7 in NW 0.9 mph 2 mph 94% 0.09 in 33 W/m2
09:19 48.9 °F 47.3 °F 29.7 in ENE 0.9 mph 3 mph 94% 0.09 in 39 W/m2
09:24 48.9 °F 47.3 °F 29.8 in NW 5 mph 5 mph 94% 0.09 in 39 W/m2
09:29 48.9 °F 47.3 °F 29.8 in NW 0.9 mph 3 mph 94% 0.08 in 39 W/m2
09:34 48.9 °F 47.3 °F 29.8 in Calm   3 mph 94% 0.06 in 32 W/m2
09:39 48.9 °F 47.3 °F 29.8 in West 0.9 mph 2 mph 94% 0.07 in 40 W/m2
09:44 48.9 °F 47.3 °F 29.8 in Calm     94% 0.07 in 37 W/m2
09:49 48.9 °F 47.3 °F 29.8 in East 0.9 mph 2 mph 94% 0.08 in 37 W/m2
09:54 48.9 °F 47.3 °F 29.8 in ENE 0.9 mph 3 mph 94% 0.09 in 37 W/m2
09:59 48.7 °F 47.1 °F 29.8 in East 2 mph 2 mph 94% 0.1 in 37 W/m2
10:04 48.9 °F 47.3 °F 29.8 in East 2 mph 4 mph 94% 0.11 in 53 W/m2
10:09 48.9 °F 47.5 °F 29.8 in SE 4 mph 4 mph 95% 0.11 in 60 W/m2
10:14 48.9 °F 47.5 °F 29.8 in East 2.9 mph 3 mph 95% 0.12 in 76 W/m2
10:19 48.9 °F 47.5 °F 29.8 in East 2 mph 2 mph 95% 0.11 in 84 W/m2
10:24 48.9 °F 47.5 °F 29.8 in Calm     95% 0.11 in 79 W/m2
10:29 48.9 °F 47.5 °F 29.8 in Calm   2 mph 95% 0.11 in 90 W/m2
10:34 48.9 °F 47.3 °F 29.8 in NNE 0.9 mph 2 mph 94% 0.1 in 77 W/m2
10:39 49.1 °F 47.5 °F 29.8 in NE 0.9 mph 2 mph 94% 0.09 in 81 W/m2
10:44 49.3 °F 47.7 °F 29.8 in Calm     94% 0.08 in 102 W/m2
10:49 49.3 °F 47.8 °F 29.8 in Calm   2 mph 95% 0.07 in 111 W/m2
10:54 49.5 °F 48 °F 29.8 in Calm   2 mph 95% 0.06 in 130 W/m2
10:59 49.6 °F 48.2 °F 29.8 in ENE 2.9 mph 3 mph 95% 0.04 in 174 W/m2
11:04 49.8 °F 48.4 °F 29.8 in SE 2 mph 2 mph 95% 0.04 in 153 W/m2
11:09 50 °F 48.6 °F 29.8 in ENE 4 mph 4 mph 95% 0.03 in 123 W/m2
11:14 50 °F 48.6 °F 29.8 in NNE 2 mph 2 mph 95% 0.02 in 105 W/m2
11:19 49.8 °F 48.2 °F 29.8 in East 0.9 mph 2 mph 94% 0.02 in 130 W/m2
11:24 50 °F 48.4 °F 29.8 in NE 2 mph 3 mph 94% 0.02 in 153 W/m2
11:29 50.2 °F 48.6 °F 29.8 in East 2.9 mph 3 mph 94% 0.01 in 193 W/m2
11:34 50.4 °F 48.7 °F 29.8 in Calm   2 mph 94% 0.01 in 209 W/m2
11:39 50.5 °F 48.9 °F 29.8 in East 2 mph 4 mph 94% 0.01 in 139 W/m2
11:44 50.5 °F 48.6 °F 29.8 in ENE 2 mph 3 mph 93% 0.01 in 113 W/m2
11:49 50.5 °F 48.6 °F 29.8 in ENE 0.9 mph 1 mph 93% 0.01 in 74 W/m2
11:54 50.5 °F 48.6 °F 29.8 in East 0.9 mph 4 mph 93% 0.01 in 58 W/m2
11:59 50.5 °F 48.6 °F 29.8 in NNE 0.9 mph 3 mph 93% 0.01 in 67 W/m2
12:04 50.5 °F 48.4 °F 29.8 in ENE 2 mph 4 mph 92% 0.01 in 65 W/m2
12:09 50.5 °F 48.4 °F 29.8 in Calm   1 mph 92% 0.01 in 46 W/m2
12:14 50.5 °F 48.4 °F 29.8 in NNE 0.9 mph 1 mph 92% 0.02 in 100 W/m2
12:19 50.5 °F 48.4 °F 29.8 in Calm   4 mph 92% 0.02 in 109 W/m2
12:24 50.5 °F 48.6 °F 29.8 in Calm   1 mph 93% 0.02 in 134 W/m2
12:29 50.5 °F 48.4 °F 29.8 in NNE 0.9 mph 2 mph 92% 0.02 in 144 W/m2
12:34 50.7 °F 48.7 °F 29.8 in Calm   3 mph 93% 0.03 in 179 W/m2
12:39 50.9 °F 48.9 °F 29.8 in Calm   1 mph 93% 0.03 in 176 W/m2
12:44 51.1 °F 49.1 °F 29.8 in Calm     93% 0.02 in 120 W/m2
12:49 51.1 °F 49.1 °F 29.8 in NNW 0.9 mph 2 mph 93% 0.03 in 90 W/m2
12:54 51.1 °F 49.1 °F 29.8 in NNW 0.9 mph 2 mph 93% 0.03 in 90 W/m2
12:59 51.1 °F 49.1 °F 29.8 in Calm   3 mph 93% 0.03 in 67 W/m2
13:04 50.9 °F 48.7 °F 29.8 in NW 4.9 mph 8 mph 92% 0.04 in 32 W/m2
13:09 49.8 °F 47.3 °F 29.8 in West 6.9 mph 8 mph 91% 0.05 in 65 W/m2
13:14 48.7 °F 46.2 °F 29.8 in WSW 4 mph 7 mph 91% 0.06 in 69 W/m2
13:19 48 °F 45.9 °F 29.8 in NW 4.9 mph 7 mph 92% 0.06 in 74 W/m2
13:24 47.5 °F 45.3 °F 29.8 in West 6 mph 6 mph 92% 0.07 in 79 W/m2
13:29 46.9 °F 44.8 °F 29.8 in WNW 2.9 mph 7 mph 92% 0.08 in 84 W/m2
13:34 46.6 °F 44.6 °F 29.8 in WNW 6 mph 7 mph 93% 0.09 in 88 W/m2
13:39 46.2 °F 44.2 °F 29.8 in NW 4.9 mph 7 mph 93% 0.09 in 109 W/m2
13:44 45.9 °F 43.7 °F 29.8 in WNW 2.9 mph 6 mph 92% 0.1 in 107 W/m2
13:49 45.7 °F 43.7 °F 29.8 in West 6 mph 7 mph 93% 0.1 in 165 W/m2
13:54 45.3 °F 43.2 °F 29.8 in North 2.9 mph 9 mph 92% 0.1 in 199 W/m2
13:59 45.3 °F 43.2 °F 29.8 in WNW 4.9 mph 9 mph 92% 0.11 in 160 W/m2
14:04 45.1 °F 43 °F 29.8 in NNW 4 mph 5 mph 92% 0.1 in 142 W/m2
14:09 45.1 °F 43 °F 29.8 in WNW 4 mph 8 mph 92% 0.1 in 156 W/m2
14:14 45 °F 42.8 °F 29.8 in West 8.1 mph 8 mph 92% 0.09 in 86 W/m2
14:19 44.4 °F 42.3 °F 29.8 in WNW 2.9 mph 9 mph 92% 0.08 in 74 W/m2
14:24 44.2 °F 42.1 °F 29.8 in West 4 mph 9 mph 92% 0.06 in 58 W/m2
14:29 44.1 °F 41.9 °F 29.8 in NE 2 mph 5 mph 92% 0.05 in 51 W/m2
14:35 44.1 °F 41.9 °F 29.8 in NW 0.9 mph 9 mph 92% 0.04 in 49 W/m2
14:40 43.7 °F 41.5 °F 29.8 in WNW 2 mph 2 mph 92% 0.04 in 63 W/m2
14:45 43.5 °F 41.4 °F 29.8 in NE 0.9 mph 6 mph 92% 0.03 in 91 W/m2
14:50 43.3 °F 41.2 °F 29.8 in Calm   4 mph 92% 0.02 in 107 W/m2
14:55 43.3 °F 41.2 °F 29.8 in NNW 2 mph 4 mph 92% 0.03 in 109 W/m2
15:00 43.2 °F 41 °F 29.9 in NNW 2 mph 6 mph 92% 0.02 in 130 W/m2
15:05 43 °F 40.8 °F 29.9 in NNW 4 mph 8 mph 92% 0.02 in 113 W/m2
15:10 42.6 °F 40.1 °F 29.9 in West 6 mph 8 mph 91% 0.02 in 153 W/m2
15:15 42.4 °F 39.9 °F 29.9 in NNW 2 mph 11 mph 91% 0.02 in 121 W/m2
15:20 42.3 °F 39.7 °F 29.9 in Calm   4 mph 91% 0.02 in 123 W/m2
15:25 42.3 °F 39.7 °F 29.9 in NNW 0.9 mph 11 mph 91% 0.02 in 130 W/m2
15:30 42.3 °F 39.7 °F 29.9 in NNW 0.9 mph 6 mph 91% 0.03 in 130 W/m2
15:35 42.3 °F 39.7 °F 29.9 in NNW 2 mph 6 mph 91% 0.03 in 151 W/m2
15:40 42.4 °F 39.9 °F 29.9 in WNW 2.9 mph 3 mph 91% 0.02 in 97 W/m2
15:45 42.3 °F 39.7 °F 29.9 in West 6.9 mph 11 mph 91% 0.02 in 90 W/m2
15:50 41.7 °F 39 °F 29.9 in NW 8.1 mph 9 mph 90% 0.02 in 95 W/m2
15:55 41.5 °F 38.8 °F 29.9 in NW 6 mph 9 mph 90% 0.02 in 86 W/m2
16:00 41.5 °F 38.8 °F 29.9 in WNW 4 mph 10 mph 90% 0.02 in 83 W/m2
16:05 41.5 °F 39.2 °F 29.9 in WSW 6.9 mph 8 mph 91% 0.02 in 84 W/m2
16:10 41.4 °F 38.7 °F 29.9 in NNW 2 mph 9 mph 90% 0.02 in 76 W/m2
16:15 41.2 °F 38.5 °F 29.9 in North 4.9 mph 6 mph 90% 0.02 in 77 W/m2
16:20 41.2 °F 38.8 °F 29.9 in West 6 mph 7 mph 91% 0.02 in 81 W/m2
16:25 41.2 °F 38.5 °F 29.9 in West 8.1 mph 8 mph 90% 0.02 in 86 W/m2
16:30 40.8 °F 38.1 °F 29.9 in NW 4 mph 5 mph 90% 0.02 in 63 W/m2
16:35 40.8 °F 38.1 °F 29.9 in West 4 mph 10 mph 90% 0.02 in 76 W/m2
16:40 40.6 °F 37.9 °F 29.9 in West 2.9 mph 8 mph 90% 0.02 in 69 W/m2
16:45 40.5 °F 37.8 °F 29.9 in WNW 2.9 mph 4 mph 90% 0.02 in 62 W/m2
16:50 40.5 °F 37.8 °F 29.9 in West 6.9 mph 9 mph 90% 0.03 in 65 W/m2
16:55 40.1 °F 37 °F 29.9 in NNE 2 mph 8 mph 89% 0.02 in 93 W/m2
17:00 40.3 °F 37.6 °F 29.9 in North 2 mph 7 mph 90% 0.02 in 91 W/m2
17:05 40.3 °F 37.6 °F 29.9 in East 4 mph 6 mph 90% 0.02 in 84 W/m2
17:10 40.3 °F 37.6 °F 29.9 in NNW 4 mph 12 mph 90% 0.02 in 70 W/m2
17:15 40.1 °F 37.4 °F 29.9 in WNW 2.9 mph 6 mph 90% 0.02 in 69 W/m2
17:20 40.1 °F 37.4 °F 29.9 in WNW 2 mph 9 mph 90% 0.02 in 54 W/m2
17:25 39.9 °F 37.2 °F 29.9 in NW 0.9 mph 5 mph 90% 0.02 in 37 W/m2
17:30 39.7 °F 37 °F 29.9 in North 4 mph 8 mph 90% 0.02 in 30 W/m2
17:35 39.7 °F 37 °F 29.9 in NNW 2 mph 9 mph 90% 0.02 in 42 W/m2
17:40 39.7 °F 37 °F 29.9 in NNE 0.9 mph 6 mph 90% 0.02 in 51 W/m2
17:45 39.6 °F 36.9 °F 29.9 in NW 4 mph 7 mph 90% 0.02 in 44 W/m2
17:50 39.6 °F 36.9 °F 29.9 in WSW 2.9 mph 4 mph 90% 0.02 in 40 W/m2
17:55 39.4 °F 36.7 °F 29.9 in SW 2.9 mph 13 mph 90% 0.02 in 40 W/m2
18:00 39.4 °F 36.7 °F 29.9 in West 2 mph 9 mph 90% 0.02 in 46 W/m2
18:05 39.2 °F 36.5 °F 29.9 in North 4.9 mph 12 mph 90% 0.02 in 37 W/m2
18:10 39.2 °F 36.5 °F 29.9 in SW 2.9 mph 4 mph 90% 0.02 in 42 W/m2
18:15 39.2 °F 36.5 °F 29.9 in NNW 2 mph 11 mph 90% 0.02 in 49 W/m2
18:20 39 °F 36.3 °F 29.9 in North 6 mph 10 mph 90% 0.02 in 46 W/m2
18:25 39 °F 36.3 °F 29.9 in NW 2 mph 3 mph 90% 0.02 in 46 W/m2
18:30 39.2 °F 36.9 °F 29.9 in NW 2 mph 3 mph 91% 0.02 in 42 W/m2
18:35 39.4 °F 37 °F 30 in NW 2 mph 4 mph 91% 0.02 in 46 W/m2
18:40 39.4 °F 37 °F 30 in NW 2.9 mph 5 mph 91% 0.02 in 37 W/m2
18:45 39.6 °F 37.2 °F 30 in NW 2.9 mph 9 mph 91% 0.02 in 42 W/m2
18:50 39.6 °F 36.9 °F 30 in NW 2 mph 6 mph 90% 0.02 in 37 W/m2
18:55 39.6 °F 36.9 °F 30 in NNE 4 mph 10 mph 90% 0.02 in 33 W/m2
19:00 39.4 °F 36.7 °F 30 in North 4.9 mph 11 mph 90% 0.02 in 23 W/m2
19:05 39.4 °F 36.7 °F 30 in NW 0.9 mph 5 mph 90% 0.02 in 23 W/m2
19:10 39.4 °F 36.7 °F 30 in WNW 2 mph 11 mph 90% 0.01 in 25 W/m2
19:15 39.4 °F 36.7 °F 30 in North 2.9 mph 4 mph 90% 0.01 in 21 W/m2
19:20 39.2 °F 36.5 °F 30 in West 2 mph 8 mph 90% 0.01 in 14 W/m2
19:25 39.2 °F 36.5 °F 30 in NNE 0.9 mph 5 mph 90% 0.01 in 18 W/m2
19:30 39.2 °F 36.5 °F 30 in NW 0.9 mph 4 mph 90% 0.02 in 14 W/m2
19:35 39.4 °F 36.7 °F 30 in WNW 4 mph 6 mph 90% 0.02 in 12 W/m2
19:40 39.4 °F 36.7 °F 30 in West 6.9 mph 7 mph 90% 0.01 in 11 W/m2
19:45 39.2 °F 36.9 °F 30 in NW 2.9 mph 7 mph 91% 0.01 in 12 W/m2
19:50 39.2 °F 36.9 °F 30 in NNW 2 mph 4 mph 91% 0.01 in 11 W/m2
19:55 39.2 °F 36.9 °F 30 in NNW 2 mph 8 mph 91% 0.01 in 9 W/m2
20:00 39.4 °F 36.7 °F 30 in WNW 2.9 mph 6 mph 90% 0.01 in 7 W/m2
20:05 39.4 °F 36.7 °F 30 in WNW 2.9 mph 7 mph 90% 0.01 in 0 W/m2
20:10 39.4 °F 36.7 °F 30 in NW 2.9 mph 4 mph 90% 0.01 in 0 W/m2
20:15 39.4 °F 36.7 °F 30 in West 4 mph 7 mph 90% 0.01 in 5 W/m2
20:20 39.4 °F 36.7 °F 30 in WNW 4.9 mph 8 mph 90% 0.01 in 0 W/m2
20:25 39.4 °F 36.7 °F 30 in WNW 4 mph 10 mph 90% 0.01 in 0 W/m2
20:30 39.4 °F 36.7 °F 30 in West 2.9 mph 5 mph 90% 0 in 0 W/m2
20:35 39.4 °F 36.7 °F 30 in West 2.9 mph 8 mph 90% 0 in 0 W/m2
20:40 39.4 °F 36.7 °F 30 in West 8.9 mph 12 mph 90% 0 in 0 W/m2
20:45 39.6 °F 36.9 °F 30 in NW 2.9 mph 7 mph 90% 0 in 0 W/m2
20:50 39.6 °F 36.9 °F 30 in WNW 2.9 mph 12 mph 90% 0 in 0 W/m2
20:55 39.6 °F 36.5 °F 30 in NW 2 mph 7 mph 89% 0 in 0 W/m2
21:01 39.6 °F 36.9 °F 30 in WSW 4.9 mph 8 mph 90% 0 in 0 W/m2
21:06 39.6 °F 36.9 °F 30 in WNW 2 mph 4 mph 90% 0 in 0 W/m2
21:11 39.6 °F 36.9 °F 30 in WNW 0.9 mph 8 mph 90% 0 in 0 W/m2
21:16 39.4 °F 36.7 °F 30 in WNW 2 mph 7 mph 90% 0 in 0 W/m2
21:21 39.4 °F 36.7 °F 30 in West 6 mph 7 mph 90% 0 in 0 W/m2
21:26 39.4 °F 36.5 °F 30 in West 2 mph 4 mph 89% 0 in 0 W/m2
21:31 39.4 °F 36.5 °F 30 in WNW 4 mph 6 mph 89% 0 in 0 W/m2
21:36 39.4 °F 36.5 °F 30.1 in WSW 4 mph 9 mph 89% 0 in 0 W/m2
21:41 39.4 °F 36.5 °F 30.1 in WNW 4 mph 5 mph 89% 0 in 0 W/m2
21:46 39.4 °F 36.5 °F 30.1 in West 4 mph 9 mph 89% 0 in 0 W/m2
21:51 39.4 °F 36.5 °F 30.1 in WNW 4 mph 6 mph 89% 0 in 0 W/m2
21:56 39.4 °F 36.5 °F 30.1 in WNW 4.9 mph 6 mph 89% 0 in 0 W/m2
22:01 39.4 °F 36.5 °F 30.1 in WSW 2.9 mph 7 mph 89% 0 in 0 W/m2
22:06 39.4 °F 36.1 °F 30.1 in WNW 2.9 mph 6 mph 88% 0 in 0 W/m2
22:11 39.4 °F 36.1 °F 30.1 in West 2.9 mph 4 mph 88% 0 in 0 W/m2
22:16 39.4 °F 36.1 °F 30.1 in WNW 2 mph 7 mph 88% 0 in 0 W/m2
22:21 39.4 °F 36.1 °F 30.1 in West 2.9 mph 6 mph 88% 0 in 0 W/m2
22:26 39.4 °F 36.1 °F 30.1 in WNW 2 mph 4 mph 88% 0 in 0 W/m2
22:31 39.4 °F 36.1 °F 30.1 in NW 2.9 mph 3 mph 88% 0 in 0 W/m2
22:36 39.4 °F 36.5 °F 30.1 in WNW 2.9 mph 6 mph 89% 0 in 0 W/m2
22:41 39 °F 36.1 °F 30.1 in WNW 4 mph 6 mph 89% 0 in 0 W/m2
22:46 39 °F 36.1 °F 30.1 in West 0.9 mph 2 mph 89% 0 in 0 W/m2
22:51 39 °F 36.3 °F 30.1 in WNW 2 mph 2 mph 90% 0 in 0 W/m2
22:56 39 °F 36.3 °F 30.1 in WNW 2 mph 3 mph 90% 0 in 0 W/m2
23:01 38.8 °F 36.1 °F 30.1 in WSW 2.9 mph 5 mph 90% 0 in 0 W/m2
23:06 38.8 °F 36.5 °F 30.1 in WSW 2 mph 4 mph 91% 0 in 0 W/m2
23:11 38.8 °F 36.5 °F 30.1 in WSW 4.9 mph 7 mph 91% 0 in 0 W/m2
23:16 38.8 °F 36.5 °F 30.1 in WNW 2.9 mph 3 mph 91% 0 in 0 W/m2
23:21 38.8 °F 36.1 °F 30.1 in West 2.9 mph 7 mph 90% 0 in 0 W/m2
23:26 39 °F 36.3 °F 30.1 in West 2.9 mph 4 mph 90% 0 in 0 W/m2
23:31 39 °F 36.3 °F 30.1 in WSW 2 mph 6 mph 90% 0 in 0 W/m2
23:36 39 °F 36.3 °F 30.1 in West 2.9 mph 6 mph 90% 0 in 0 W/m2
23:41 39 °F 36.3 °F 30.1 in WSW 4 mph 4 mph 90% 0 in 0 W/m2
23:46 39 °F 36.3 °F 30.1 in WNW 0.9 mph 3 mph 90% 0 in 0 W/m2
23:51 39 °F 36.3 °F 30.1 in West 0.9 mph 3 mph 90% 0 in 0 W/m2
23:56 38.8 °F 36.1 °F 30.1 in West 2 mph 6 mph 90% 0 in 0 W/m2
Juneau County Weather
Compliments of Weather Underground - 4 mb